createdAt,value
2018-11-27T00:00:49.511Z,99387.58
2018-11-27T00:03:19.196Z,99389.66
2018-11-27T00:05:48.799Z,99390.87
2018-11-27T00:08:18.510Z,99392.67
2018-11-27T00:10:48.225Z,99391.88
2018-11-27T00:13:17.847Z,99391.11
2018-11-27T00:15:47.426Z,99393.13
2018-11-27T00:18:17.552Z,99395.06
2018-11-27T00:20:47.138Z,99399.29
2018-11-27T00:23:16.719Z,99396.42
2018-11-27T00:25:46.374Z,99397.91
2018-11-27T00:28:15.969Z,99402.75
2018-11-27T00:30:45.661Z,99404.05
2018-11-27T00:33:15.294Z,99405.70
2018-11-27T00:35:44.911Z,99415.37
2018-11-27T00:38:14.528Z,99417.49
2018-11-27T00:40:44.139Z,99420.48
2018-11-27T00:43:13.826Z,99417.44
2018-11-27T00:45:43.455Z,99422.76
2018-11-27T00:48:13.037Z,99430.94
2018-11-27T00:50:42.656Z,99433.97
2018-11-27T00:53:12.341Z,99437.55
2018-11-27T00:55:42.010Z,99431.55
2018-11-27T00:58:11.569Z,99433.53
2018-11-27T01:00:41.158Z,99446.12
2018-11-27T01:03:10.865Z,99446.67
2018-11-27T01:05:40.768Z,99444.28
2018-11-27T01:08:10.476Z,99444.95
2018-11-27T01:10:40.136Z,99444.31
2018-11-27T01:13:09.732Z,99444.22
2018-11-27T01:15:39.399Z,99451.20
2018-11-27T01:18:08.989Z,99453.52
2018-11-27T01:20:38.638Z,99456.33
2018-11-27T01:23:08.899Z,99451.80
2018-11-27T01:25:39.347Z,99450.59
2018-11-27T01:28:09.057Z,99454.50
2018-11-27T01:30:38.674Z,99455.33
2018-11-27T01:33:08.341Z,99462.73
2018-11-27T01:35:38.095Z,99460.00
2018-11-27T01:38:07.689Z,99461.67
2018-11-27T01:40:37.406Z,99461.05
2018-11-27T01:43:07.331Z,99464.38
2018-11-27T01:45:37.032Z,99469.39
2018-11-27T01:48:06.809Z,99470.91
2018-11-27T01:50:36.541Z,99467.72
2018-11-27T01:53:06.717Z,99463.16
2018-11-27T01:55:36.349Z,99463.16
2018-11-27T01:58:06.585Z,99467.15
2018-11-27T02:00:36.402Z,99469.84
2018-11-27T02:03:06.009Z,99467.87
2018-11-27T02:05:35.595Z,99469.34
2018-11-27T02:08:05.425Z,99460.70
2018-11-27T02:10:35.059Z,99468.83
2018-11-27T02:13:04.735Z,99467.45
2018-11-27T02:15:34.396Z,99471.42
2018-11-27T02:18:04.009Z,99464.72
2018-11-27T02:20:33.834Z,99472.79
2018-11-27T02:23:03.458Z,99472.89
2018-11-27T02:25:33.067Z,99465.83
2018-11-27T02:28:02.783Z,99464.31
2018-11-27T02:30:32.359Z,99461.97
2018-11-27T02:33:02.086Z,99469.28
2018-11-27T02:35:31.757Z,99471.83
2018-11-27T02:38:01.431Z,99473.05
2018-11-27T02:40:31.107Z,99480.66
2018-11-27T02:43:00.796Z,99485.27
2018-11-27T02:45:30.523Z,99483.15
2018-11-27T02:48:00.135Z,99488.62
2018-11-27T02:50:29.791Z,99490.34
2018-11-27T02:52:59.350Z,99490.86
2018-11-27T02:55:28.987Z,99490.05
2018-11-27T02:57:58.581Z,99493.30
2018-11-27T03:00:28.960Z,99494.97
2018-11-27T03:02:58.701Z,99499.44
2018-11-27T03:05:36.910Z,99505.22
2018-11-27T03:08:06.812Z,99503.04
2018-11-27T03:10:36.390Z,99506.80
2018-11-27T03:13:07.109Z,99501.77
2018-11-27T03:15:36.804Z,99507.91
2018-11-27T03:18:07.192Z,99497.91
2018-11-27T03:20:36.800Z,99497.00
2018-11-27T03:23:07.121Z,99493.20
2018-11-27T03:25:37.219Z,99505.37
2018-11-27T03:28:07.708Z,99508.63
2018-11-27T03:30:37.308Z,99509.80
2018-11-27T03:33:07.171Z,99516.90
2018-11-27T03:35:36.819Z,99521.22
2018-11-27T03:38:07.100Z,99529.13
2018-11-27T03:40:36.694Z,99533.40
2018-11-27T03:43:06.522Z,99531.38
2018-11-27T03:45:36.427Z,99530.11
2018-11-27T03:48:06.541Z,99532.33
2018-11-27T03:50:36.171Z,99534.22
2018-11-27T03:53:06.047Z,99530.65
2018-11-27T03:55:36.175Z,99532.54
2018-11-27T03:58:05.857Z,99531.76
2018-11-27T04:00:35.570Z,99534.97
2018-11-27T04:03:11.027Z,99544.01
2018-11-27T04:05:41.436Z,99541.22
2018-11-27T04:08:11.539Z,99549.23
2018-11-27T04:10:42.357Z,99552.37
2018-11-27T04:13:12.007Z,99552.48
2018-11-27T04:15:41.733Z,99556.70
2018-11-27T04:18:11.328Z,99560.09
2018-11-27T04:20:41.073Z,99562.54
2018-11-27T04:23:10.670Z,99565.99
2018-11-27T04:25:40.357Z,99571.41
2018-11-27T04:28:10.007Z,99574.22
2018-11-27T04:30:39.674Z,99579.45
2018-11-27T04:33:09.619Z,99585.48
2018-11-27T04:35:39.251Z,99588.38
2018-11-27T04:38:08.831Z,99589.86
2018-11-27T04:40:38.455Z,99590.76
2018-11-27T04:43:08.090Z,99593.14
2018-11-27T04:45:37.705Z,99601.23
2018-11-27T04:48:07.424Z,99602.14
2018-11-27T04:50:37.212Z,99606.50
2018-11-27T04:53:07.457Z,99610.66
2018-11-27T04:55:37.156Z,99620.57
2018-11-27T04:58:07.029Z,99618.03
2018-11-27T05:00:36.650Z,99626.85
2018-11-27T05:03:06.992Z,99616.70
2018-11-27T05:05:36.815Z,99621.38
2018-11-27T05:08:06.920Z,99624.46
2018-11-27T05:10:36.617Z,99619.98
2018-11-27T05:13:07.013Z,99617.68
2018-11-27T05:15:36.666Z,99619.91
2018-11-27T05:18:06.693Z,99619.97
2018-11-27T05:20:36.467Z,99621.58
2018-11-27T05:23:07.291Z,99631.21
2018-11-27T05:25:36.957Z,99628.47
2018-11-27T05:28:06.863Z,99636.96
2018-11-27T05:30:36.649Z,99635.95
2018-11-27T05:33:07.074Z,99636.67
2018-11-27T05:35:36.747Z,99639.80
2018-11-27T05:38:07.357Z,99639.54
2018-11-27T05:40:37.022Z,99643.15
2018-11-27T05:43:10.330Z,99648.66
2018-11-27T05:45:40.026Z,99655.28
2018-11-27T05:48:09.766Z,99657.23
2018-11-27T05:50:39.488Z,99663.72
2018-11-27T05:53:09.249Z,99675.19
2018-11-27T05:55:39.063Z,99671.06
2018-11-27T05:58:08.628Z,99676.62
2018-11-27T06:00:38.376Z,99681.77
2018-11-27T06:03:10.500Z,99684.34
2018-11-27T06:05:40.356Z,99679.59
2018-11-27T06:08:10.162Z,99696.28
2018-11-27T06:10:39.863Z,99693.62
2018-11-27T06:13:09.447Z,99694.44
2018-11-27T06:15:39.074Z,99692.74
2018-11-27T06:18:08.781Z,99702.70
2018-11-27T06:20:38.450Z,99697.70
2018-11-27T06:23:08.377Z,99710.94
2018-11-27T06:25:38.097Z,99709.17
2018-11-27T06:28:09.159Z,99712.39
2018-11-27T06:30:39.226Z,99717.40
2018-11-27T06:33:08.849Z,99712.72
2018-11-27T06:35:43.516Z,99721.41
2018-11-27T06:38:13.322Z,99725.24
2018-11-27T06:40:43.810Z,99721.41
2018-11-27T06:43:14.326Z,99725.66
2018-11-27T06:45:44.959Z,99728.56
2018-11-27T06:48:14.698Z,99726.96
2018-11-27T06:50:44.279Z,99730.22
2018-11-27T06:53:14.014Z,99739.16
2018-11-27T06:55:43.726Z,99739.48
2018-11-27T06:58:13.411Z,99742.63
2018-11-27T07:00:43.648Z,99743.28
2018-11-27T07:03:14.648Z,99748.61
2018-11-27T07:05:44.269Z,99749.80
2018-11-27T07:08:13.906Z,99753.27
2018-11-27T07:10:45.638Z,99753.19
2018-11-27T07:13:21.408Z,99755.02
2018-11-27T07:15:52.037Z,99759.73
2018-11-27T07:18:21.955Z,99758.70
2018-11-27T07:20:51.639Z,99763.38
2018-11-27T07:23:21.374Z,99762.25
2018-11-27T07:25:51.222Z,99762.70
2018-11-27T07:28:20.982Z,99763.59
2018-11-27T07:30:50.672Z,99773.13
2018-11-27T07:33:20.298Z,99773.32
2018-11-27T07:35:50.216Z,99777.53
2018-11-27T07:38:19.926Z,99776.92
2018-11-27T07:40:49.637Z,99782.98
2018-11-27T07:43:19.438Z,99786.35
2018-11-27T07:45:49.357Z,99780.70
2018-11-27T07:48:19.056Z,99788.19
2018-11-27T07:50:48.619Z,99789.65
2018-11-27T07:53:18.485Z,99788.97
2018-11-27T07:55:48.078Z,99793.09
2018-11-27T07:58:17.891Z,99793.33
2018-11-27T08:00:47.495Z,99797.03
2018-11-27T08:03:17.202Z,99805.05
2018-11-27T08:05:46.840Z,99809.52
2018-11-27T08:08:18.658Z,99815.10
2018-11-27T08:10:49.624Z,99815.19
2018-11-27T08:13:19.206Z,99817.91
2018-11-27T08:15:48.815Z,99821.43
2018-11-27T08:18:18.401Z,99833.52
2018-11-27T08:20:48.029Z,99826.98
2018-11-27T08:23:17.671Z,99838.98
2018-11-27T08:25:47.346Z,99839.30
2018-11-27T08:28:17.046Z,99838.19
2018-11-27T08:30:46.654Z,99839.36
2018-11-27T08:33:16.261Z,99846.27
2018-11-27T08:35:45.905Z,99852.20
2018-11-27T08:38:15.492Z,99853.88
2018-11-27T08:40:45.076Z,99850.20
2018-11-27T08:43:14.837Z,99847.78
2018-11-27T08:45:44.399Z,99850.21
2018-11-27T08:48:13.975Z,99856.11
2018-11-27T08:50:43.532Z,99848.61
2018-11-27T08:53:13.102Z,99855.49
2018-11-27T08:55:44.759Z,99858.81
2018-11-27T08:58:20.406Z,99860.14
2018-11-27T09:00:50.258Z,99859.17
2018-11-27T09:03:19.897Z,99856.27
2018-11-27T09:05:49.407Z,99867.22
2018-11-27T09:08:19.134Z,99867.42
2018-11-27T09:10:48.705Z,99871.31
2018-11-27T09:13:18.489Z,99876.45
2018-11-27T09:15:48.172Z,99870.87
2018-11-27T09:18:24.335Z,99870.64
2018-11-27T09:20:54.021Z,99870.92
2018-11-27T09:23:23.583Z,99874.94
2018-11-27T09:25:53.298Z,99881.38
2018-11-27T09:28:22.910Z,99881.33
2018-11-27T09:30:52.545Z,99875.77
2018-11-27T09:33:22.254Z,99886.30
2018-11-27T09:35:52.577Z,99884.05
2018-11-27T09:38:22.242Z,99886.83
2018-11-27T09:40:52.026Z,99890.09
2018-11-27T09:43:21.705Z,99895.93
2018-11-27T09:45:51.828Z,99895.42
2018-11-27T09:48:21.426Z,99893.33
2018-11-27T09:50:50.998Z,99894.97
2018-11-27T09:53:20.645Z,99892.55
2018-11-27T09:55:50.286Z,99900.43
2018-11-27T09:58:19.956Z,99888.05
2018-11-27T10:00:49.791Z,99884.14
2018-11-27T10:03:19.417Z,99890.91
2018-11-27T10:05:49.018Z,99896.38
2018-11-27T10:08:18.597Z,99901.39
2018-11-27T10:10:48.422Z,99895.55
2018-11-27T10:13:18.096Z,99902.34
2018-11-27T10:15:47.845Z,99907.22
2018-11-27T10:18:17.700Z,99901.70
2018-11-27T10:20:47.737Z,99908.91
2018-11-27T10:23:17.757Z,99899.73
2018-11-27T10:25:47.570Z,99911.23
2018-11-27T10:28:17.477Z,99912.23
2018-11-27T10:30:47.901Z,99914.97
2018-11-27T10:33:17.827Z,99919.31
2018-11-27T10:35:50.931Z,99923.30
2018-11-27T10:38:20.915Z,99925.95
2018-11-27T10:40:50.659Z,99922.11
2018-11-27T10:43:20.332Z,99920.86
2018-11-27T10:45:50.028Z,99923.25
2018-11-27T10:48:19.835Z,99923.70
2018-11-27T10:50:49.758Z,99928.27
2018-11-27T10:53:19.657Z,99932.45
2018-11-27T10:55:49.266Z,99933.99
2018-11-27T10:58:19.087Z,99931.30
2018-11-27T11:00:52.816Z,99933.36
2018-11-27T11:03:26.586Z,99938.95
2018-11-27T11:05:56.917Z,99939.58
2018-11-27T11:08:26.545Z,99938.46
2018-11-27T11:10:56.156Z,99943.22
2018-11-27T11:13:25.900Z,99947.03
2018-11-27T11:15:55.721Z,99945.18
2018-11-27T11:18:25.446Z,99955.95
2018-11-27T11:20:55.226Z,99955.68
2018-11-27T11:23:25.078Z,99955.66
2018-11-27T11:25:54.686Z,99950.88
2018-11-27T11:28:30.750Z,99954.45
2018-11-27T11:31:00.532Z,99956.42
2018-11-27T11:33:30.358Z,99962.63
2018-11-27T11:36:00.264Z,99963.27
2018-11-27T11:38:29.983Z,99967.79
2018-11-27T11:40:59.795Z,99964.30
2018-11-27T11:43:29.429Z,99966.66
2018-11-27T11:45:59.218Z,99966.60
2018-11-27T11:48:29.158Z,99972.86
2018-11-27T11:50:58.803Z,99981.48
2018-11-27T11:53:28.543Z,99972.41
2018-11-27T11:55:58.356Z,99970.11
2018-11-27T11:58:28.266Z,99975.69
2018-11-27T12:00:58.481Z,99973.64
2018-11-27T12:03:28.310Z,99973.80
2018-11-27T12:05:57.930Z,99983.14
2018-11-27T12:08:27.612Z,99978.33
2018-11-27T12:10:58.905Z,99978.45
2018-11-27T12:13:29.148Z,99987.55
2018-11-27T12:15:59.744Z,99984.14
2018-11-27T12:18:30.318Z,99982.73
2018-11-27T12:20:59.935Z,99977.73
2018-11-27T12:23:29.545Z,99985.47
2018-11-27T12:25:59.142Z,99990.68
2018-11-27T12:28:28.691Z,99993.41
2018-11-27T12:30:58.363Z,99989.42
2018-11-27T12:33:28.076Z,99994.13
2018-11-27T12:35:57.635Z,99999.97
2018-11-27T12:38:27.277Z,99998.31
2018-11-27T12:40:56.875Z,100009.30
2018-11-27T12:43:26.611Z,100008.39
2018-11-27T12:45:57.839Z,100011.76
2018-11-27T12:48:30.016Z,100015.55
2018-11-27T12:51:02.318Z,100017.23
2018-11-27T12:53:32.078Z,100014.20
2018-11-27T12:56:01.890Z,100029.41
2018-11-27T12:58:33.644Z,100024.72
2018-11-27T13:01:09.346Z,100026.85
2018-11-27T13:03:35.280Z,100026.85
2018-11-27T13:06:06.075Z,100028.83
2018-11-27T13:08:35.852Z,100032.52
2018-11-27T13:11:11.574Z,100033.98
2018-11-27T13:13:39.851Z,100041.48
2018-11-27T13:16:09.997Z,100050.73
2018-11-27T13:18:40.295Z,100052.02
2018-11-27T13:21:10.285Z,100054.52
2018-11-27T13:23:39.933Z,100051.92
2018-11-27T13:26:09.546Z,100058.27
2018-11-27T13:28:39.193Z,100059.42
2018-11-27T13:31:10.969Z,100053.53
2018-11-27T13:33:50.854Z,100061.17
2018-11-27T13:36:20.767Z,100066.98
2018-11-27T13:38:50.395Z,100071.67
2018-11-27T13:41:20.076Z,100075.49
2018-11-27T13:43:49.793Z,100076.80
2018-11-27T13:46:19.393Z,100080.63
2018-11-27T13:48:48.917Z,100083.12
2018-11-27T13:51:18.745Z,100084.69
2018-11-27T13:53:48.360Z,100092.91
2018-11-27T13:56:18.014Z,100094.30
2018-11-27T13:58:47.692Z,100096.45
2018-11-27T14:01:17.234Z,100095.22
2018-11-27T14:03:46.940Z,100100.23
2018-11-27T14:06:16.646Z,100099.44
2018-11-27T14:08:46.377Z,100101.86
2018-11-27T14:11:19.178Z,100110.41
2018-11-27T14:13:46.079Z,100098.36
2018-11-27T14:16:15.788Z,100100.39
2018-11-27T14:18:45.601Z,100102.30
2018-11-27T14:21:15.303Z,100105.75
2018-11-27T14:23:46.699Z,100099.03
2018-11-27T14:26:16.462Z,100105.70
2018-11-27T14:28:46.107Z,100104.56
2018-11-27T14:31:15.586Z,100102.73
2018-11-27T14:33:45.183Z,100102.09
2018-11-27T14:36:14.835Z,100103.97
2018-11-27T14:38:44.497Z,100112.88
2018-11-27T14:41:14.148Z,100116.72
2018-11-27T14:43:43.850Z,100116.44
2018-11-27T14:46:13.461Z,100120.38
2018-11-27T14:48:43.032Z,100125.76
2018-11-27T14:51:12.771Z,100125.11
2018-11-27T14:53:42.321Z,100130.20
2018-11-27T14:56:12.040Z,100134.02
2018-11-27T14:58:41.851Z,100129.72
2018-11-27T15:01:11.667Z,100131.31
2018-11-27T15:03:41.274Z,100128.92
2018-11-27T15:06:10.921Z,100132.55
2018-11-27T15:08:40.915Z,100136.89
2018-11-27T15:11:12.802Z,100141.03
2018-11-27T15:13:40.169Z,100145.70
2018-11-27T15:16:09.921Z,100147.69
2018-11-27T15:18:40.031Z,100144.52
2018-11-27T15:21:09.702Z,100147.52
2018-11-27T15:23:39.451Z,100152.55
2018-11-27T15:26:09.190Z,100148.41
2018-11-27T15:28:38.859Z,100149.88
2018-11-27T15:31:08.627Z,100158.97
2018-11-27T15:33:38.185Z,100148.11
2018-11-27T15:36:08.035Z,100153.95
2018-11-27T15:38:37.797Z,100160.05
2018-11-27T15:41:08.027Z,100152.67
2018-11-27T15:43:37.728Z,100150.62
2018-11-27T15:46:07.352Z,100158.06
2018-11-27T15:48:36.982Z,100163.38
2018-11-27T15:51:06.842Z,100166.84
2018-11-27T15:53:36.389Z,100172.09
2018-11-27T15:56:06.293Z,100166.09
2018-11-27T15:58:35.953Z,100170.45
2018-11-27T16:01:05.592Z,100169.41
2018-11-27T16:03:35.218Z,100167.72
2018-11-27T16:06:04.882Z,100176.72
2018-11-27T16:08:34.708Z,100175.67
2018-11-27T16:11:04.408Z,100179.36
2018-11-27T16:13:34.005Z,100179.91
2018-11-27T16:16:03.648Z,100183.18
2018-11-27T16:18:41.849Z,100191.00
2018-11-27T16:21:19.428Z,100195.34
2018-11-27T16:23:50.894Z,100198.70
2018-11-27T16:26:27.092Z,100204.11
2018-11-27T16:29:01.347Z,100206.08
2018-11-27T16:31:35.888Z,100205.19
2018-11-27T16:34:07.205Z,100203.17
2018-11-27T16:36:36.843Z,100202.67
2018-11-27T16:39:12.237Z,100201.48
2018-11-27T16:41:41.903Z,100213.70
2018-11-27T16:44:11.988Z,100213.52
2018-11-27T16:46:41.588Z,100214.63
2018-11-27T16:49:11.196Z,100221.34
2018-11-27T16:51:41.102Z,100219.05
2018-11-27T16:54:17.406Z,100219.13
2018-11-27T16:56:47.489Z,100223.80
2018-11-27T16:59:17.278Z,100214.23
2018-11-27T17:01:47.011Z,100218.94
2018-11-27T17:04:16.641Z,100224.73
2018-11-27T17:06:46.296Z,100224.73
2018-11-27T17:09:15.954Z,100218.38
2018-11-27T17:11:45.639Z,100228.23
2018-11-27T17:14:15.391Z,100239.75
2018-11-27T17:16:45.103Z,100229.64
2018-11-27T17:19:14.796Z,100239.81
2018-11-27T17:21:44.507Z,100233.62
2018-11-27T17:24:14.258Z,100240.50
2018-11-27T17:26:48.106Z,100241.72
2018-11-27T17:29:18.943Z,100247.17
2018-11-27T17:31:48.618Z,100250.46
2018-11-27T17:34:18.511Z,100243.73
2018-11-27T17:36:48.221Z,100247.03
2018-11-27T17:39:17.957Z,100257.55
2018-11-27T17:41:47.572Z,100245.37
2018-11-27T17:44:18.267Z,100247.86
2018-11-27T17:46:48.041Z,100247.08
2018-11-27T17:49:18.768Z,100245.81
2018-11-27T17:51:48.421Z,100249.66
2018-11-27T17:54:19.191Z,100253.31
2018-11-27T17:56:49.943Z,100258.31
2018-11-27T17:59:19.687Z,100258.20
2018-11-27T18:01:49.419Z,100255.13
2018-11-27T18:04:19.122Z,100255.91
2018-11-27T18:06:48.935Z,100256.30
2018-11-27T18:09:18.783Z,100264.66
2018-11-27T18:11:48.901Z,100265.70
2018-11-27T18:14:24.823Z,100270.11
2018-11-27T18:16:55.736Z,100275.58
2018-11-27T18:19:25.822Z,100282.86
2018-11-27T18:22:00.340Z,100274.64
2018-11-27T18:24:30.870Z,100272.67
2018-11-27T18:27:00.641Z,100280.15
2018-11-27T18:29:34.776Z,100287.59
2018-11-27T18:32:08.138Z,100286.98
2018-11-27T18:34:41.751Z,100290.47
2018-11-27T18:37:15.383Z,100293.34
2018-11-27T18:39:44.976Z,100292.67
2018-11-27T18:42:15.059Z,100292.23
2018-11-27T18:44:45.931Z,100287.92
2018-11-27T18:47:17.342Z,100292.13
2018-11-27T18:49:48.673Z,100293.03
2018-11-27T18:52:20.714Z,100292.38
2018-11-27T18:54:52.166Z,100293.34
2018-11-27T18:57:22.520Z,100292.98
2018-11-27T19:00:02.196Z,100298.43
2018-11-27T19:02:36.689Z,100304.30
2018-11-27T19:05:08.523Z,100303.49
2018-11-27T19:07:39.337Z,100308.61
2018-11-27T19:10:21.139Z,100305.37
2018-11-27T19:12:52.716Z,100306.09
2018-11-27T19:15:36.388Z,100309.36
2018-11-27T19:18:20.140Z,100311.88
2018-11-27T19:20:50.485Z,100314.03
2018-11-27T19:23:26.946Z,100311.54
2018-11-27T19:26:03.309Z,100313.31
2018-11-27T19:28:33.670Z,100317.52
2018-11-27T19:31:09.493Z,100321.67
2018-11-27T19:33:39.749Z,100325.30
2018-11-27T19:38:45.137Z,100338.61
2018-11-27T19:41:18.185Z,100340.76
2018-11-27T19:43:51.784Z,100343.19
2018-11-27T19:46:23.764Z,100344.80
2018-11-27T19:48:54.986Z,100338.66
2018-11-27T19:51:30.018Z,100334.95
2018-11-27T19:54:03.111Z,100339.91
2018-11-27T19:56:36.294Z,100339.34
2018-11-27T19:59:07.836Z,100348.86
2018-11-27T20:01:41.628Z,100354.14
2018-11-27T20:04:16.611Z,100355.05
2018-11-27T20:06:52.807Z,100351.55
2018-11-27T20:09:33.371Z,100358.44
2018-11-27T20:12:08.843Z,100360.45
2018-11-27T20:14:43.537Z,100367.75
2018-11-27T20:17:16.038Z,100373.70
2018-11-27T20:19:50.562Z,100377.69
2018-11-27T20:22:21.773Z,100375.34
2018-11-27T20:24:54.666Z,100377.38
2018-11-27T20:27:24.555Z,100378.98
2018-11-27T20:29:54.499Z,100372.80
2018-11-27T20:32:27.402Z,100375.48
2018-11-27T20:34:58.405Z,100376.78
2018-11-27T20:37:28.149Z,100370.44
2018-11-27T20:39:59.392Z,100367.48
2018-11-27T20:42:33.624Z,100371.53
2018-11-27T20:45:19.313Z,100374.77
2018-11-27T20:47:45.634Z,100369.46
2018-11-27T20:50:21.474Z,100370.56
2018-11-27T20:52:51.175Z,100379.50
2018-11-27T20:55:22.815Z,100380.96
2018-11-27T20:58:02.064Z,100384.92
2018-11-27T21:00:39.913Z,100389.52
2018-11-27T21:03:12.821Z,100393.37
2018-11-27T21:05:42.578Z,100387.72
2018-11-27T21:08:12.216Z,100396.44
2018-11-27T21:10:46.791Z,100393.54
2018-11-27T21:13:18.645Z,100391.89
2018-11-27T21:15:48.486Z,100388.09
2018-11-27T21:18:18.792Z,100394.58
2018-11-27T21:20:51.803Z,100393.98
2018-11-27T21:23:23.280Z,100402.91
2018-11-27T21:25:56.432Z,100395.81
2018-11-27T21:28:24.170Z,100394.02
2018-11-27T21:30:53.978Z,100391.14
2018-11-27T21:33:26.143Z,100392.23
2018-11-27T21:35:59.548Z,100395.70
2018-11-27T21:38:34.829Z,100396.56
2018-11-27T21:41:08.446Z,100400.58
2018-11-27T21:43:40.036Z,100393.45
2018-11-27T21:46:16.105Z,100391.84
2018-11-27T21:48:45.888Z,100400.03
2018-11-27T21:51:20.039Z,100404.39
2018-11-27T21:53:56.784Z,100415.48
2018-11-27T21:56:28.124Z,100407.13
2018-11-27T21:58:57.685Z,100408.88
2018-11-27T22:01:36.942Z,100400.75
2018-11-27T22:04:06.978Z,100410.94
2018-11-27T22:06:36.944Z,100401.83
2018-11-27T22:09:08.251Z,100409.25
2018-11-27T22:11:38.251Z,100407.53
2018-11-27T22:14:08.374Z,100407.41
2018-11-27T22:16:38.074Z,100413.22
2018-11-27T22:19:11.261Z,100415.05
2018-11-27T22:21:41.076Z,100420.98
2018-11-27T22:24:11.194Z,100410.13
2018-11-27T22:26:41.000Z,100411.73
2018-11-27T22:29:10.945Z,100417.23
2018-11-27T22:31:40.529Z,100421.05
2018-11-27T22:34:10.227Z,100417.23
2018-11-27T22:36:39.937Z,100417.19
2018-11-27T22:39:10.311Z,100425.76
2018-11-27T22:41:39.915Z,100423.98
2018-11-27T22:44:09.643Z,100426.86
2018-11-27T22:46:39.685Z,100432.88
2018-11-27T22:49:09.903Z,100429.91
2018-11-27T22:51:39.512Z,100431.94
2018-11-27T22:54:09.127Z,100436.13
2018-11-27T22:56:38.836Z,100432.50
2018-11-27T22:59:08.463Z,100428.84
2018-11-27T23:01:41.140Z,100445.56
2018-11-27T23:04:10.827Z,100442.89
2018-11-27T23:06:40.538Z,100444.52
2018-11-27T23:09:10.546Z,100435.56
2018-11-27T23:11:40.145Z,100435.92
2018-11-27T23:14:09.785Z,100437.36
2018-11-27T23:16:39.468Z,100440.80
2018-11-27T23:19:09.177Z,100432.45
2018-11-27T23:21:38.837Z,100437.55
2018-11-27T23:24:08.591Z,100445.44
2018-11-27T23:26:38.218Z,100450.14
2018-11-27T23:29:07.908Z,100451.22
2018-11-27T23:31:37.621Z,100446.91
2018-11-27T23:34:07.292Z,100437.41
2018-11-27T23:36:36.952Z,100439.59
2018-11-27T23:39:08.790Z,100435.42
2018-11-27T23:41:38.491Z,100439.00
2018-11-27T23:44:08.206Z,100449.19
2018-11-27T23:46:37.806Z,100444.81
2018-11-27T23:49:07.454Z,100436.50
2018-11-27T23:51:37.003Z,100444.19
2018-11-27T23:54:07.174Z,100447.44
2018-11-27T23:56:36.815Z,100442.34
2018-11-27T23:59:06.547Z,100449.05
